Elmhurst, Pennsylvania
Current Conditions -  °F | °C
As of 6:54 PM on Saturday 25 Oct 2014 (Local Time) from KAVP Reporting Station
Few Clouds Few Clouds  
Wind Chill: 65°   Ceiling: Unl
Heat Index: 65°   Visibility: 10mi
Dew Point: 43°   Wind: 13mph
Humidity: 45%   Direction: 230°SW
Pressure: 29.62"   Gusts: 21mph
Location:  41.38°N, 75.54°W
Report Text: KAVP 252254Z AUTO 23011G18KT 10SM FEW070 18/06 A2962 RMK AO2 SLP030 T01830061
Loading
Personal Weather Stations






























Interactive Weather Map New forecast layout! Learn more

10-Day Weather Forecast

Advertisements
Track Severe Weather on mobile